createdAt,value
2022-10-31T00:01:36.817Z,11.96
2022-10-31T00:04:09.782Z,11.98
2022-10-31T00:06:39.094Z,12.01
2022-10-31T00:09:11.418Z,12.01
2022-10-31T00:11:43.202Z,11.98
2022-10-31T00:14:10.773Z,12.03
2022-10-31T00:16:42.767Z,11.95
2022-10-31T00:19:10.871Z,12.05
2022-10-31T00:21:38.952Z,12.02
2022-10-31T00:24:07.294Z,12.06
2022-10-31T00:26:34.936Z,12.04
2022-10-31T00:29:06.320Z,12.01
2022-10-31T00:31:35.959Z,12.13
2022-10-31T00:34:04.214Z,12.03
2022-10-31T00:36:34.489Z,12.10
2022-10-31T00:39:02.450Z,12.13
2022-10-31T00:41:30.933Z,12.09
2022-10-31T00:43:58.978Z,12.15
2022-10-31T00:46:26.519Z,12.17
2022-10-31T00:48:54.362Z,12.21
2022-10-31T00:51:22.015Z,12.22
2022-10-31T00:53:49.941Z,12.19
2022-10-31T00:56:19.196Z,12.22
2022-10-31T00:58:46.806Z,12.20
2022-10-31T01:01:14.829Z,12.21
2022-10-31T01:03:42.432Z,12.15
2022-10-31T01:06:13.021Z,12.10
2022-10-31T01:08:41.233Z,12.07
2022-10-31T01:11:17.888Z,12.06
2022-10-31T01:13:46.323Z,12.02
2022-10-31T01:16:18.191Z,12.01
2022-10-31T01:18:46.161Z,11.92
2022-10-31T01:21:19.607Z,11.86
2022-10-31T01:23:48.521Z,11.91
2022-10-31T01:26:18.824Z,11.91
2022-10-31T01:28:48.443Z,11.89
2022-10-31T01:31:18.035Z,11.85
2022-10-31T01:33:47.138Z,11.84
2022-10-31T01:36:22.584Z,11.74
2022-10-31T01:38:51.934Z,11.73
2022-10-31T01:41:22.957Z,11.70
2022-10-31T01:43:53.919Z,11.60
2022-10-31T01:46:59.121Z,11.62
2022-10-31T01:49:32.719Z,11.55
2022-10-31T01:52:06.031Z,11.46
2022-10-31T01:54:40.078Z,11.36
2022-10-31T01:57:11.455Z,11.45
2022-10-31T01:59:44.247Z,11.48
2022-10-31T02:02:14.372Z,11.39
2022-10-31T02:04:43.008Z,11.40
2022-10-31T02:07:19.553Z,11.31
2022-10-31T02:09:50.664Z,11.36
2022-10-31T02:12:19.446Z,11.28
2022-10-31T02:14:47.734Z,11.30
2022-10-31T02:17:17.073Z,11.31
2022-10-31T02:19:48.892Z,11.28
2022-10-31T02:22:31.321Z,11.18
2022-10-31T02:25:26.449Z,11.19
2022-10-31T02:28:25.119Z,11.15
2022-10-31T02:30:56.734Z,11.15
2022-10-31T02:33:44.803Z,11.13
2022-10-31T02:36:23.137Z,11.05
2022-10-31T02:39:06.244Z,11.11
2022-10-31T02:41:33.742Z,11.01
2022-10-31T02:44:29.499Z,10.89
2022-10-31T02:47:08.058Z,10.92
2022-10-31T02:49:55.878Z,10.91
2022-10-31T02:52:29.273Z,10.83
2022-10-31T02:54:58.587Z,10.90
2022-10-31T02:57:32.134Z,10.81
2022-10-31T03:00:04.327Z,10.75
2022-10-31T03:02:46.940Z,10.64
2022-10-31T03:05:49.003Z,10.64
2022-10-31T03:08:49.088Z,10.64
2022-10-31T03:11:23.555Z,10.67
2022-10-31T03:13:53.627Z,10.61
2022-10-31T03:16:48.952Z,10.63
2022-10-31T03:19:22.948Z,10.56
2022-10-31T03:22:01.937Z,10.52
2022-10-31T03:24:38.360Z,10.46
2022-10-31T03:27:09.179Z,10.46
2022-10-31T03:29:39.116Z,10.50
2022-10-31T03:32:13.568Z,10.48
2022-10-31T03:34:43.827Z,10.36
2022-10-31T03:37:15.786Z,10.30
2022-10-31T03:39:46.016Z,10.32
2022-10-31T03:42:24.820Z,10.27
2022-10-31T03:45:09.192Z,10.28
2022-10-31T03:47:39.015Z,10.21
2022-10-31T03:50:09.828Z,10.24
2022-10-31T03:53:16.131Z,10.13
2022-10-31T03:55:56.825Z,10.11
2022-10-31T03:58:34.759Z,10.02
2022-10-31T04:01:06.153Z,10.08
2022-10-31T04:03:37.227Z,10.14
2022-10-31T04:06:09.935Z,10.08
2022-10-31T04:08:49.643Z,10.09
2022-10-31T04:11:22.577Z,10.03
2022-10-31T04:13:54.495Z,9.95
2022-10-31T04:16:27.290Z,9.97
2022-10-31T04:18:56.933Z,9.97
2022-10-31T04:21:31.673Z,9.97
2022-10-31T04:24:02.070Z,9.93
2022-10-31T04:26:31.765Z,9.80
2022-10-31T04:28:59.694Z,9.81
2022-10-31T04:31:27.245Z,9.86
2022-10-31T04:33:55.254Z,9.78
2022-10-31T04:36:23.067Z,9.85
2022-10-31T04:38:50.631Z,9.79
2022-10-31T04:41:18.453Z,9.71
2022-10-31T04:43:46.427Z,9.82
2022-10-31T04:46:14.086Z,9.82
2022-10-31T04:48:41.966Z,9.69
2022-10-31T04:51:09.716Z,9.72
2022-10-31T04:53:37.434Z,9.79
2022-10-31T04:56:05.730Z,9.75
2022-10-31T04:58:33.505Z,9.73
2022-10-31T05:05:27.179Z,9.75
2022-10-31T05:07:56.107Z,9.69
2022-10-31T05:10:26.371Z,9.66
2022-10-31T05:12:57.540Z,9.78
2022-10-31T05:15:27.580Z,9.80
2022-10-31T05:17:56.583Z,9.91
2022-10-31T05:20:28.410Z,9.85
2022-10-31T05:22:58.541Z,9.94
2022-10-31T05:25:29.382Z,9.91
2022-10-31T05:27:58.774Z,9.98
2022-10-31T05:30:29.506Z,9.99
2022-10-31T05:32:58.399Z,10.12
2022-10-31T05:35:32.334Z,10.14
2022-10-31T05:38:00.903Z,10.18
2022-10-31T05:40:30.218Z,10.25
2022-10-31T05:43:00.041Z,10.19
2022-10-31T05:45:28.827Z,10.18
2022-10-31T05:48:03.107Z,10.39
2022-10-31T05:50:33.004Z,10.31
2022-10-31T05:53:05.903Z,10.40
2022-10-31T05:55:34.935Z,10.37
2022-10-31T05:58:04.397Z,10.46
2022-10-31T06:00:36.244Z,10.49
2022-10-31T06:03:06.811Z,10.55
2022-10-31T06:05:34.875Z,10.93
2022-10-31T06:08:04.416Z,11.05
2022-10-31T06:10:33.058Z,11.22
2022-10-31T07:27:12.398Z,10.75
2022-10-31T07:29:40.336Z,10.99
2022-10-31T07:32:08.523Z,11.06
2022-10-31T07:34:37.565Z,11.22
2022-10-31T07:37:05.056Z,11.50
2022-10-31T07:39:32.611Z,11.56
2022-10-31T07:42:02.880Z,11.46
2022-10-31T07:44:31.050Z,11.42
2022-10-31T07:46:59.957Z,11.55
2022-10-31T07:49:27.813Z,11.51
2022-10-31T07:51:56.383Z,11.46
2022-10-31T07:54:24.021Z,11.46
2022-10-31T07:56:51.667Z,11.49
2022-10-31T07:59:19.417Z,11.40
2022-10-31T11:16:49.067Z,14.22
2022-10-31T11:19:22.867Z,14.31
2022-10-31T11:21:52.834Z,14.02
2022-10-31T11:24:27.510Z,14.14
2022-10-31T11:27:25.002Z,13.47
2022-10-31T11:30:00.530Z,13.35
2022-10-31T11:32:29.748Z,13.27
2022-10-31T11:35:03.428Z,13.57
2022-10-31T11:37:36.502Z,13.18
2022-10-31T11:40:07.738Z,13.29
2022-10-31T11:42:42.557Z,13.24
2022-10-31T11:45:20.554Z,13.33
2022-10-31T11:47:59.637Z,13.27
2022-10-31T11:50:37.791Z,13.12
2022-10-31T11:53:29.035Z,12.87
2022-10-31T11:56:17.272Z,12.87
2022-10-31T11:58:57.666Z,12.67
2022-10-31T12:01:29.188Z,12.88
2022-10-31T12:07:50.377Z,12.39
2022-10-31T12:10:31.957Z,12.21
2022-10-31T12:13:10.380Z,12.50
2022-10-31T12:15:45.617Z,12.85
2022-10-31T12:18:29.626Z,12.83
2022-10-31T12:21:17.495Z,12.97
2022-10-31T12:24:16.101Z,13.01
2022-10-31T12:26:53.998Z,13.10
2022-10-31T12:29:28.517Z,13.04
2022-10-31T12:32:14.071Z,13.23
2022-10-31T12:35:01.789Z,12.88
2022-10-31T12:37:55.106Z,13.37
2022-10-31T12:41:09.189Z,13.43
2022-10-31T12:43:40.781Z,13.76
2022-10-31T12:46:36.318Z,14.06
2022-10-31T12:49:13.879Z,13.82
2022-10-31T12:52:20.442Z,14.35
2022-10-31T12:55:04.715Z,14.39
2022-10-31T12:57:47.868Z,14.53
2022-10-31T13:00:19.252Z,14.62
2022-10-31T13:03:23.198Z,15.05
2022-10-31T13:06:00.286Z,14.48
2022-10-31T13:08:42.929Z,14.49
2022-10-31T13:11:42.634Z,14.86
2022-10-31T13:14:35.252Z,14.58
2022-10-31T13:17:05.202Z,14.11
2022-10-31T13:19:42.557Z,13.96
2022-10-31T13:22:17.851Z,13.38
2022-10-31T13:25:11.448Z,12.78
2022-10-31T13:27:45.728Z,11.97
2022-10-31T13:30:24.092Z,11.70
2022-10-31T13:33:03.921Z,11.51
2022-10-31T13:35:42.709Z,11.22
2022-10-31T13:38:23.814Z,11.08
2022-10-31T13:41:01.536Z,10.88
2022-10-31T13:43:44.589Z,10.54
2022-10-31T13:46:44.737Z,10.37
2022-10-31T13:49:31.160Z,10.36
2022-10-31T13:52:10.870Z,10.14
2022-10-31T13:54:43.024Z,10.12
2022-10-31T13:57:21.208Z,9.94
2022-10-31T13:59:56.073Z,10.07
2022-10-31T14:02:31.780Z,9.88
2022-10-31T14:05:04.064Z,9.94
2022-10-31T14:07:33.975Z,9.85
2022-10-31T14:10:26.950Z,9.84
2022-10-31T14:13:15.145Z,9.65
2022-10-31T14:15:58.393Z,9.69
2022-10-31T14:18:35.497Z,9.63
2022-10-31T14:21:30.068Z,9.45
2022-10-31T14:23:59.744Z,9.34
2022-10-31T14:26:27.547Z,9.39
2022-10-31T14:29:21.449Z,9.42
2022-10-31T14:38:59.597Z,8.83
2022-10-31T15:07:57.191Z,7.86
2022-10-31T15:10:37.622Z,7.96
2022-10-31T15:18:05.855Z,7.86
2022-10-31T15:20:46.942Z,7.97
2022-10-31T15:23:22.642Z,7.95
2022-10-31T15:25:51.236Z,8.01
2022-10-31T15:28:26.992Z,7.96
2022-10-31T15:30:57.479Z,7.91
2022-10-31T15:33:38.207Z,8.00
2022-10-31T15:36:27.323Z,8.13
2022-10-31T15:39:01.305Z,7.96
2022-10-31T15:41:41.213Z,7.96
2022-10-31T15:44:34.643Z,7.96
2022-10-31T15:47:27.547Z,8.00
2022-10-31T15:49:59.316Z,7.91
2022-10-31T15:52:45.312Z,7.89
2022-10-31T15:55:24.320Z,7.97
2022-10-31T15:57:59.752Z,7.82
2022-10-31T16:00:37.405Z,7.80
2022-10-31T16:03:29.307Z,7.71
2022-10-31T16:06:05.037Z,7.69
2022-10-31T16:08:38.154Z,7.68
2022-10-31T16:11:12.273Z,7.67
2022-10-31T16:14:04.909Z,7.64
2022-10-31T16:16:36.422Z,7.55
2022-10-31T16:19:16.285Z,7.49
2022-10-31T16:21:46.309Z,7.54
2022-10-31T16:24:28.425Z,7.48
2022-10-31T16:27:04.262Z,7.52
2022-10-31T16:29:47.058Z,7.30
2022-10-31T16:32:53.785Z,7.33
2022-10-31T16:35:37.981Z,7.37
2022-10-31T16:38:06.952Z,7.31
2022-10-31T16:40:39.670Z,7.22
2022-10-31T16:43:18.657Z,7.14
2022-10-31T16:45:49.227Z,7.13
2022-10-31T16:48:22.398Z,7.11
2022-10-31T16:50:54.335Z,7.05
2022-10-31T16:53:33.978Z,6.98
2022-10-31T16:56:05.042Z,6.93
2022-10-31T16:58:35.643Z,7.10
2022-10-31T17:01:07.816Z,7.04
2022-10-31T17:03:37.572Z,7.02
2022-10-31T17:06:06.964Z,7.04
2022-10-31T17:08:35.037Z,7.00
2022-10-31T17:11:04.886Z,6.98
2022-10-31T17:13:39.570Z,6.93
2022-10-31T17:16:09.641Z,6.88
2022-10-31T17:18:38.177Z,6.95
2022-10-31T17:21:06.472Z,6.89
2022-10-31T17:23:38.856Z,6.83
2022-10-31T17:26:08.955Z,6.76
2022-10-31T17:28:38.092Z,6.76
2022-10-31T17:31:12.042Z,6.79
2022-10-31T17:33:40.033Z,6.81
2022-10-31T17:36:09.111Z,6.72
2022-10-31T17:38:38.844Z,6.66
2022-10-31T17:41:11.010Z,6.74
2022-10-31T17:43:40.966Z,6.74
2022-10-31T17:46:09.128Z,6.66
2022-10-31T17:48:38.345Z,6.72
2022-10-31T17:51:07.879Z,6.63
2022-10-31T17:53:38.739Z,6.75
2022-10-31T17:56:09.706Z,6.76
2022-10-31T17:58:38.960Z,6.73
2022-10-31T18:01:11.353Z,6.68
2022-10-31T18:03:41.996Z,6.62
2022-10-31T18:06:14.626Z,6.67
2022-10-31T18:08:44.826Z,6.68
2022-10-31T18:11:22.377Z,6.60
2022-10-31T18:13:59.096Z,6.47
2022-10-31T18:16:27.230Z,6.35
2022-10-31T18:19:02.269Z,6.39
2022-10-31T18:21:32.130Z,6.28
2022-10-31T18:24:03.237Z,6.43
2022-10-31T18:26:32.799Z,6.27
2022-10-31T18:29:04.343Z,6.18
2022-10-31T18:31:33.060Z,6.17
2022-10-31T18:34:02.659Z,6.19
2022-10-31T18:36:31.035Z,6.24
2022-10-31T18:38:59.980Z,6.18
2022-10-31T18:41:28.119Z,6.18
2022-10-31T18:43:59.985Z,6.14
2022-10-31T18:46:29.338Z,6.21
2022-10-31T18:48:59.470Z,6.22
2022-10-31T18:51:28.600Z,6.19
2022-10-31T18:54:00.295Z,6.17
2022-10-31T18:56:31.692Z,6.27
2022-10-31T18:59:03.745Z,6.10
2022-10-31T19:01:32.344Z,6.19
2022-10-31T19:04:01.664Z,6.12
2022-10-31T19:06:31.204Z,6.07
2022-10-31T19:09:05.679Z,5.98
2022-10-31T19:11:39.245Z,6.02
2022-10-31T19:14:12.924Z,6.19
2022-10-31T19:16:43.146Z,6.18
2022-10-31T19:19:11.054Z,5.99
2022-10-31T19:21:39.934Z,6.09
2022-10-31T19:24:09.670Z,6.11
2022-10-31T19:26:39.414Z,6.09
2022-10-31T19:29:09.266Z,6.21
2022-10-31T19:31:40.094Z,6.08
2022-10-31T19:34:08.049Z,5.95
2022-10-31T19:36:37.714Z,5.90
2022-10-31T19:39:06.124Z,5.84
2022-10-31T19:41:36.400Z,5.89
2022-10-31T19:44:05.127Z,5.88
2022-10-31T19:49:25.278Z,5.60
2022-10-31T19:51:53.158Z,5.52
2022-10-31T19:54:22.163Z,5.44
2022-10-31T19:56:52.451Z,5.34
2022-10-31T19:59:21.135Z,5.17
2022-10-31T20:01:49.217Z,5.15
2022-10-31T20:04:20.462Z,5.12
2022-10-31T20:06:51.126Z,5.19
2022-10-31T20:09:22.458Z,5.02
2022-10-31T20:11:50.972Z,4.98
2022-10-31T20:14:20.623Z,4.78
2022-10-31T20:16:49.158Z,4.76
2022-10-31T20:19:18.346Z,4.68
2022-10-31T20:21:47.184Z,4.70
2022-10-31T20:24:16.421Z,4.87
2022-10-31T20:26:45.518Z,4.75
2022-10-31T20:29:19.766Z,4.72
2022-10-31T20:31:48.836Z,4.72
2022-10-31T20:34:17.022Z,4.80
2022-10-31T20:36:46.873Z,4.87
2022-10-31T20:39:15.209Z,4.66
2022-10-31T20:41:45.737Z,4.60
2022-10-31T20:44:14.011Z,4.56
2022-10-31T20:46:44.216Z,4.60
2022-10-31T20:49:12.126Z,4.56
2022-10-31T20:51:41.400Z,4.57
2022-10-31T20:54:13.029Z,4.52
2022-10-31T20:56:41.679Z,4.48
2022-10-31T20:59:12.607Z,4.56
2022-10-31T21:01:42.371Z,4.48
2022-10-31T21:04:12.056Z,4.42
2022-10-31T21:06:48.135Z,4.47
2022-10-31T21:09:18.221Z,4.39
2022-10-31T21:11:46.080Z,4.34
2022-10-31T21:14:17.582Z,4.48
2022-10-31T21:16:50.535Z,4.39
2022-10-31T21:19:19.444Z,4.31
2022-10-31T21:21:48.134Z,4.23
2022-10-31T21:24:20.911Z,4.14
2022-10-31T21:26:53.601Z,4.17
2022-10-31T21:29:22.525Z,4.29
2022-10-31T21:31:51.387Z,4.24
2022-10-31T21:34:20.223Z,4.26
2022-10-31T21:36:47.989Z,4.27
2022-10-31T21:39:17.171Z,4.31
2022-10-31T21:41:45.072Z,4.33
2022-10-31T21:44:13.960Z,4.36
2022-10-31T21:46:42.221Z,4.43
2022-10-31T21:49:11.576Z,4.28
2022-10-31T21:51:42.947Z,4.19
2022-10-31T21:54:27.874Z,4.21
2022-10-31T21:56:57.916Z,4.22
2022-10-31T21:59:27.610Z,4.10
2022-10-31T22:01:58.389Z,4.10
2022-10-31T22:04:28.118Z,4.16
2022-10-31T22:06:59.200Z,4.06
2022-10-31T22:09:28.017Z,4.11
2022-10-31T22:11:59.913Z,4.11
2022-10-31T22:14:28.564Z,4.19
2022-10-31T22:16:56.970Z,4.24
2022-10-31T22:19:25.584Z,4.24
2022-10-31T22:21:54.593Z,4.13
2022-10-31T22:24:24.626Z,3.96
2022-10-31T22:26:52.946Z,3.95
2022-10-31T22:29:23.289Z,3.96
2022-10-31T22:31:57.260Z,3.98
2022-10-31T22:34:29.359Z,3.93
2022-10-31T22:36:56.993Z,3.86
2022-10-31T22:39:26.098Z,3.91
2022-10-31T22:41:55.444Z,3.97
2022-10-31T22:44:23.934Z,3.98
2022-10-31T22:46:52.804Z,4.05
2022-10-31T22:49:22.060Z,4.06
2022-10-31T22:51:52.263Z,3.96
2022-10-31T22:54:21.110Z,3.88
2022-10-31T22:56:50.841Z,3.93
2022-10-31T22:59:18.976Z,3.87
2022-10-31T23:01:48.028Z,3.83
2022-10-31T23:04:17.247Z,3.94
2022-10-31T23:06:46.168Z,3.85
2022-10-31T23:09:16.665Z,3.90
2022-10-31T23:11:46.010Z,3.92
2022-10-31T23:14:21.121Z,3.90
2022-10-31T23:16:55.406Z,3.71
2022-10-31T23:19:30.913Z,3.79
2022-10-31T23:22:04.235Z,3.75
2022-10-31T23:24:47.225Z,3.75
2022-10-31T23:27:24.877Z,3.79
2022-10-31T23:29:57.600Z,3.69
2022-10-31T23:32:38.026Z,3.62
2022-10-31T23:35:12.649Z,3.58
2022-10-31T23:37:42.598Z,3.48
2022-10-31T23:40:11.634Z,3.44
2022-10-31T23:42:41.641Z,3.39
2022-10-31T23:45:10.103Z,3.34
2022-10-31T23:47:43.221Z,3.32
2022-10-31T23:50:12.103Z,3.28
2022-10-31T23:52:41.043Z,3.38
2022-10-31T23:55:09.687Z,3.27
2022-10-31T23:57:39.950Z,3.18
